Time;durP1;ratioP1;P1;durP2;ratioP2;P2;SDS_P1;SDS_P2;PMS_P1;PMS_P2;Temp;Humidity;BMP_temperature;BMP_pressure;BME280_temperature;BME280_humidity;BME280_pressure;Samples;Min_cycle;Max_cycle;Signal;HPM_P1;HPM_P2
2024/04/06 00:01:30;;;;;;;9.25;2.33;;;11.80;99.90;;;;;;5101767;28;20047;-80
2024/04/06 00:03:56;;;;;;;11.45;2.08;;;11.80;99.90;;;;;;5083203;28;20058;-79
2024/04/06 00:06:21;;;;;;;10.00;2.33;;;11.70;99.90;;;;;;5097334;27;20520;-80
2024/04/06 00:08:50;;;;;;;9.82;2.05;;;11.70;99.90;;;;;;5104019;27;20131;-80
2024/04/06 00:11:16;;;;;;;13.13;2.53;;;11.70;99.90;;;;;;5122215;27;20622;-79
2024/04/06 00:13:42;;;;;;;17.75;2.45;;;11.70;99.90;;;;;;5103590;27;20126;-79
2024/04/06 00:16:07;;;;;;;15.82;2.33;;;11.70;99.90;;;;;;5122328;27;20050;-79
2024/04/06 00:18:35;;;;;;;11.18;2.20;;;11.70;99.90;;;;;;5103320;27;20066;-80
2024/04/06 00:21:01;;;;;;;18.20;3.10;;;11.60;99.90;;;;;;5123969;27;20086;-78
2024/04/06 00:23:28;;;;;;;11.65;2.30;;;11.60;99.90;;;;;;5100229;28;20120;-79
2024/04/06 00:25:54;;;;;;;10.60;2.03;;;11.60;99.90;;;;;;5083243;28;20073;-80
2024/04/06 00:28:19;;;;;;;12.35;2.50;;;11.60;99.90;;;;;;5090769;27;20123;-79
2024/04/06 00:30:45;;;;;;;7.75;2.13;;;11.60;99.90;;;;;;5103334;27;20697;-79
2024/04/06 00:33:11;;;;;;;9.63;2.80;;;11.60;99.90;;;;;;5102849;27;20054;-80
2024/04/06 00:35:38;;;;;;;10.13;2.05;;;11.50;99.90;;;;;;5110458;27;20043;-80
2024/04/06 00:38:04;;;;;;;12.98;3.00;;;11.50;99.90;;;;;;5103067;27;20096;-80
2024/04/06 00:40:29;;;;;;;12.90;2.65;;;11.50;99.90;;;;;;5103145;27;20092;-78
2024/04/06 00:42:55;;;;;;;14.80;2.80;;;11.40;99.90;;;;;;5121705;27;20449;-79
2024/04/06 00:45:21;;;;;;;16.17;2.50;;;11.40;99.90;;;;;;5102828;27;20049;-79
2024/04/06 00:47:47;;;;;;;14.55;2.92;;;11.40;99.90;;;;;;5095580;28;20058;-78
2024/04/06 00:50:13;;;;;;;9.43;2.28;;;11.40;99.90;;;;;;5101274;28;20050;-79
2024/04/06 00:52:39;;;;;;;13.35;3.03;;;11.40;99.90;;;;;;5100929;28;20040;-80
2024/04/06 00:55:05;;;;;;;14.43;3.00;;;11.40;99.90;;;;;;5088264;28;20093;-80
2024/04/06 00:57:31;;;;;;;14.45;2.55;;;11.40;99.90;;;;;;5081967;28;20484;-79
2024/04/06 00:59:57;;;;;;;11.98;3.17;;;11.40;99.90;;;;;;5082579;28;20044;-79
2024/04/06 01:02:23;;;;;;;11.25;2.90;;;11.40;99.90;;;;;;5094014;27;20087;-79
2024/04/06 01:04:49;;;;;;;13.05;2.88;;;11.60;99.90;;;;;;5102285;27;20561;-80
2024/04/06 01:07:14;;;;;;;9.73;2.65;;;11.40;99.90;;;;;;5102267;27;20054;-81
2024/04/06 01:09:41;;;;;;;12.48;2.92;;;11.40;99.90;;;;;;5102556;27;20587;-79
2024/04/06 01:12:06;;;;;;;14.45;3.08;;;11.60;99.90;;;;;;5101567;27;20426;-79
2024/04/06 01:14:32;;;;;;;10.52;2.72;;;11.40;99.90;;;;;;5117968;27;20043;-79
2024/04/06 01:16:58;;;;;;;8.43;2.40;;;11.40;99.90;;;;;;5101089;28;20043;-80
2024/04/06 01:19:24;;;;;;;13.80;3.17;;;11.40;99.90;;;;;;5104350;27;20097;-80
2024/04/06 01:21:49;;;;;;;9.55;2.40;;;11.50;99.90;;;;;;5102100;27;20074;-79
2024/04/06 01:24:28;;;;;;;16.58;2.83;;;11.40;99.90;;;;;;5102287;27;20477;-79
2024/04/06 01:26:55;;;;;;;12.27;3.17;;;11.50;99.90;;;;;;5101804;27;20409;-80
2024/04/06 01:29:23;;;;;;;12.07;2.85;;;11.50;99.90;;;;;;5101702;27;20122;-80
2024/04/06 01:31:49;;;;;;;11.55;3.05;;;11.50;99.90;;;;;;5102586;27;20059;-78
2024/04/06 01:34:15;;;;;;;13.20;3.08;;;11.50;99.90;;;;;;5098844;27;20070;-79
2024/04/06 01:36:40;;;;;;;10.32;3.45;;;11.50;99.90;;;;;;5101690;27;20047;-79
2024/04/06 01:39:09;;;;;;;9.15;2.28;;;11.40;99.90;;;;;;5101741;27;20495;-80
2024/04/06 01:41:40;;;;;;;15.82;3.45;;;11.50;99.90;;;;;;5120304;27;20432;-79
2024/04/06 01:44:06;;;;;;;11.93;2.75;;;11.50;99.90;;;;;;5101272;27;20100;-81
2024/04/06 01:46:33;;;;;;;9.20;2.92;;;11.40;99.90;;;;;;5120107;27;20423;-80
2024/04/06 01:48:59;;;;;;;13.38;3.67;;;11.40;99.90;;;;;;5101166;27;20054;-80
2024/04/06 01:51:25;;;;;;;11.27;3.28;;;11.50;99.90;;;;;;5120632;27;20120;-79
2024/04/06 01:53:51;;;;;;;12.15;2.90;;;11.40;99.90;;;;;;5101713;27;20054;-80
2024/04/06 01:56:17;;;;;;;9.45;2.60;;;11.40;99.90;;;;;;5120199;27;20435;-79
2024/04/06 01:58:42;;;;;;;15.73;3.45;;;11.40;99.90;;;;;;5107420;27;20047;-79
2024/04/06 02:01:08;;;;;;;9.63;3.00;;;11.40;99.90;;;;;;5081275;28;20058;-79
2024/04/06 02:03:37;;;;;;;12.32;3.03;;;11.30;99.90;;;;;;5080929;28;20425;-80
2024/04/06 02:06:03;;;;;;;14.23;2.80;;;11.30;99.90;;;;;;5081830;28;20047;-80
2024/04/06 02:08:28;;;;;;;17.70;3.47;;;11.30;99.90;;;;;;5113808;27;20083;-79
2024/04/06 02:10:54;;;;;;;8.55;2.65;;;11.30;99.90;;;;;;5120290;27;20050;-80
2024/04/06 02:13:20;;;;;;;8.20;2.45;;;11.30;99.90;;;;;;5101718;28;20054;-79
2024/04/06 02:15:45;;;;;;;11.05;2.88;;;11.30;99.90;;;;;;5099544;28;20557;-79
2024/04/06 02:18:11;;;;;;;16.08;3.33;;;11.30;99.90;;;;;;5097866;28;20601;-79
2024/04/06 02:20:39;;;;;;;11.43;3.20;;;11.30;99.90;;;;;;5101688;28;20059;-79
2024/04/06 02:23:04;;;;;;;12.73;3.88;;;11.30;99.90;;;;;;5102876;27;20039;-79
2024/04/06 02:25:31;;;;;;;10.20;3.70;;;11.30;99.90;;;;;;5108222;27;20579;-79
2024/04/06 02:27:57;;;;;;;13.57;3.08;;;11.20;99.90;;;;;;5101152;28;20062;-79
2024/04/06 02:30:23;;;;;;;12.80;3.08;;;11.30;99.90;;;;;;5103642;27;20051;-79
2024/04/06 02:32:49;;;;;;;16.98;3.53;;;11.20;99.90;;;;;;5107775;27;20139;-78
2024/04/06 02:35:15;;;;;;;13.38;3.15;;;11.30;99.90;;;;;;5107692;27;20078;-79
2024/04/06 02:37:44;;;;;;;16.50;3.17;;;11.30;99.90;;;;;;5102204;28;20055;-80
2024/04/06 02:40:10;;;;;;;9.80;2.65;;;11.20;99.90;;;;;;5088000;28;20074;-80
2024/04/06 02:42:37;;;;;;;14.00;3.47;;;11.30;99.90;;;;;;5087021;28;20606;-80
2024/04/06 02:45:03;;;;;;;11.80;3.33;;;11.30;99.90;;;;;;5087799;28;20588;-80
2024/04/06 02:47:29;;;;;;;10.63;2.88;;;11.30;99.90;;;;;;5087482;28;20105;-80
2024/04/06 02:49:55;;;;;;;9.80;2.63;;;11.30;99.90;;;;;;5088058;28;20561;-81
2024/04/06 02:52:21;;;;;;;15.18;3.40;;;11.30;99.90;;;;;;5087084;28;20043;-80
2024/04/06 02:54:48;;;;;;;14.57;3.08;;;11.30;99.90;;;;;;5098234;27;20050;-79
2024/04/06 02:57:13;;;;;;;13.13;2.97;;;11.30;99.90;;;;;;5107235;27;20126;-80
2024/04/06 02:59:39;;;;;;;11.57;3.40;;;11.20;99.90;;;;;;5125811;27;20046;-80
2024/04/06 03:02:05;;;;;;;12.82;3.53;;;11.40;99.90;;;;;;5107463;27;20126;-81
2024/04/06 03:04:31;;;;;;;13.50;3.40;;;11.30;99.90;;;;;;5107814;27;20086;-80
2024/04/06 03:06:57;;;;;;;10.38;2.63;;;11.40;99.90;;;;;;5087665;28;20143;-80
2024/04/06 03:09:23;;;;;;;13.48;3.20;;;11.30;99.90;;;;;;5088107;28;20039;-79
2024/04/06 03:11:48;;;;;;;12.05;3.53;;;11.30;99.90;;;;;;5093040;27;20059;-80
2024/04/06 03:14:14;;;;;;;15.10;4.00;;;11.30;99.90;;;;;;5107112;27;20054;-80
2024/04/06 03:16:40;;;;;;;11.30;3.47;;;11.30;99.90;;;;;;5107463;27;20556;-79
2024/04/06 03:19:05;;;;;;;11.32;3.63;;;11.30;99.90;;;;;;5126284;27;20538;-80
2024/04/06 03:21:31;;;;;;;14.05;3.78;;;11.30;99.90;;;;;;5107400;27;20055;-79
2024/04/06 03:23:56;;;;;;;13.55;4.00;;;11.30;99.90;;;;;;5107232;27;20128;-80
2024/04/06 03:26:22;;;;;;;13.32;3.92;;;11.30;99.90;;;;;;5095357;28;20451;-78
2024/04/06 03:28:48;;;;;;;12.00;4.28;;;11.30;99.90;;;;;;5100569;27;20047;-80
2024/04/06 03:31:14;;;;;;;10.50;3.67;;;11.30;99.90;;;;;;5125771;27;20122;-80
2024/04/06 03:33:40;;;;;;;8.40;3.35;;;11.30;99.90;;;;;;5107537;27;20069;-80
2024/04/06 03:36:05;;;;;;;13.55;3.30;;;11.30;99.90;;;;;;5086807;27;20773;-79
2024/04/06 03:38:31;;;;;;;10.25;3.33;;;11.30;99.90;;;;;;5122678;27;20097;-80
2024/04/06 03:40:57;;;;;;;11.27;3.85;;;11.30;99.90;;;;;;5104580;27;20453;-80
2024/04/06 03:43:23;;;;;;;12.05;3.58;;;11.30;99.90;;;;;;5122495;27;20063;-78
2024/04/06 03:45:49;;;;;;;11.45;4.75;;;11.50;99.90;;;;;;5094402;27;20486;-80
2024/04/06 03:48:15;;;;;;;11.45;3.90;;;11.40;99.90;;;;;;5122743;27;20051;-80
2024/04/06 03:50:40;;;;;;;11.40;4.20;;;11.30;99.90;;;;;;5103650;27;20513;-80
2024/04/06 03:53:06;;;;;;;13.02;3.83;;;11.40;99.90;;;;;;5122834;27;20140;-80
2024/04/06 03:55:31;;;;;;;13.27;4.05;;;11.30;99.90;;;;;;5103599;27;20133;-80
2024/04/06 03:57:57;;;;;;;11.50;4.10;;;11.30;99.90;;;;;;5086901;27;20082;-80
2024/04/06 04:00:23;;;;;;;15.55;4.78;;;11.40;99.90;;;;;;5122526;27;20043;-79
2024/04/06 04:02:48;;;;;;;12.02;4.72;;;11.30;99.90;;;;;;5100262;28;20159;-80
2024/04/06 04:05:14;;;;;;;12.98;4.97;;;11.30;99.90;;;;;;5091766;28;20134;-80
2024/04/06 04:07:40;;;;;;;15.77;4.85;;;11.20;99.90;;;;;;5086498;27;20043;-80
2024/04/06 04:10:06;;;;;;;13.82;5.10;;;11.30;99.90;;;;;;5103896;27;20051;-80
2024/04/06 04:12:33;;;;;;;15.02;5.57;;;11.30;99.90;;;;;;5103373;27;20047;-79
2024/04/06 04:15:04;;;;;;;15.00;5.68;;;11.30;99.90;;;;;;5122413;27;20051;-79
2024/04/06 04:17:32;;;;;;;14.13;5.63;;;11.30;99.90;;;;;;5122132;27;20055;-79
2024/04/06 04:20:04;;;;;;;12.50;5.80;;;11.30;99.90;;;;;;5103260;27;20054;-79
2024/04/06 04:22:30;;;;;;;13.55;6.20;;;11.30;99.90;;;;;;5099540;28;20117;-79
2024/04/06 04:24:57;;;;;;;13.23;5.90;;;11.40;99.90;;;;;;5083072;28;20596;-78
2024/04/06 04:27:23;;;;;;;17.95;6.50;;;11.60;99.90;;;;;;5082742;28;20040;-79
2024/04/06 04:29:48;;;;;;;13.30;6.75;;;11.40;99.90;;;;;;5077583;28;20043;-79
2024/04/06 04:32:14;;;;;;;15.18;6.70;;;11.40;99.90;;;;;;5082730;28;20128;-81
2024/04/06 04:34:39;;;;;;;14.15;6.80;;;11.40;99.90;;;;;;5090353;27;20468;-80
2024/04/06 04:37:05;;;;;;;20.10;8.05;;;11.40;99.90;;;;;;5090941;28;20054;-80
2024/04/06 04:39:31;;;;;;;13.23;7.43;;;11.50;99.90;;;;;;5101176;28;20098;-80
2024/04/06 04:41:57;;;;;;;13.38;6.85;;;11.50;99.90;;;;;;5082787;28;20087;-79
2024/04/06 04:44:23;;;;;;;16.20;7.65;;;11.40;99.90;;;;;;5101524;28;20047;-79
2024/04/06 04:46:49;;;;;;;13.05;7.60;;;11.50;99.90;;;;;;5098439;27;20043;-79
2024/04/06 04:49:14;;;;;;;13.73;7.90;;;11.60;99.90;;;;;;5103778;27;20051;-79
2024/04/06 04:51:40;;;;;;;16.38;8.43;;;11.50;99.90;;;;;;5117095;27;20035;-79
2024/04/06 04:54:06;;;;;;;15.32;7.70;;;11.60;99.90;;;;;;5104613;28;20051;-78
2024/04/06 04:56:31;;;;;;;13.13;7.78;;;11.60;99.90;;;;;;5111747;27;20050;-78
2024/04/06 04:58:57;;;;;;;18.35;8.23;;;11.60;99.90;;;;;;5129508;27;20074;-78
2024/04/06 05:01:23;;;;;;;14.85;8.18;;;11.70;99.90;;;;;;5094703;27;20763;-78
2024/04/06 05:03:48;;;;;;;15.02;8.65;;;11.70;99.90;;;;;;5095482;27;20115;-79
2024/04/06 05:06:14;;;;;;;14.38;7.82;;;11.70;99.90;;;;;;5099625;28;20086;-78
2024/04/06 05:08:39;;;;;;;16.38;9.73;;;11.70;99.90;;;;;;5096493;28;20051;-78
2024/04/06 05:11:05;;;;;;;15.50;8.45;;;11.80;99.90;;;;;;5106584;27;20519;-78
2024/04/06 05:13:31;;;;;;;16.08;8.90;;;11.80;99.90;;;;;;5114010;27;20040;-79
2024/04/06 05:15:58;;;;;;;12.88;9.00;;;11.80;99.90;;;;;;5122529;27;20048;-78
2024/04/06 05:18:24;;;;;;;16.80;9.52;;;11.80;99.90;;;;;;5105772;28;20778;-78
2024/04/06 05:20:50;;;;;;;15.52;9.35;;;11.80;99.90;;;;;;5094701;28;20096;-80
2024/04/06 05:23:16;;;;;;;15.15;8.85;;;11.80;99.90;;;;;;5114321;27;20046;-78
2024/04/06 05:25:43;;;;;;;22.23;10.30;;;11.90;99.90;;;;;;5104724;27;20162;-78
2024/04/06 05:28:09;;;;;;;17.08;10.18;;;11.90;99.90;;;;;;5079629;28;20138;-79
2024/04/06 05:30:35;;;;;;;12.98;8.80;;;11.90;99.90;;;;;;5102197;27;20114;-78
2024/04/06 05:33:00;;;;;;;15.18;8.77;;;11.90;99.90;;;;;;5120822;27;20624;-78
2024/04/06 05:35:26;;;;;;;17.33;9.57;;;12.00;99.90;;;;;;5124421;27;20401;-79
2024/04/06 05:37:52;;;;;;;20.38;8.88;;;12.00;99.90;;;;;;5107132;28;20071;-79
2024/04/06 05:40:17;;;;;;;14.95;9.48;;;12.00;99.90;;;;;;5107980;27;20052;-78
2024/04/06 05:42:43;;;;;;;18.38;9.20;;;12.10;99.90;;;;;;5104780;28;20063;-78
2024/04/06 05:45:08;;;;;;;16.50;9.43;;;12.10;99.90;;;;;;5092989;27;20116;-78
2024/04/06 05:47:34;;;;;;;14.65;8.80;;;12.00;99.90;;;;;;5091236;28;20082;-78
2024/04/06 05:50:01;;;;;;;15.50;9.48;;;12.10;99.90;;;;;;5096585;28;20048;-79
2024/04/06 05:52:26;;;;;;;15.93;9.20;;;12.10;99.90;;;;;;5119588;27;20056;-78
2024/04/06 05:54:52;;;;;;;12.52;8.45;;;12.10;99.90;;;;;;5098417;27;20078;-77
2024/04/06 05:57:18;;;;;;;17.02;9.32;;;12.10;99.90;;;;;;5094714;28;20069;-78
2024/04/06 05:59:43;;;;;;;18.10;9.00;;;12.10;99.90;;;;;;5104820;27;20484;-79
2024/04/06 06:02:09;;;;;;;14.32;9.05;;;12.20;99.90;;;;;;5119101;27;20043;-78
2024/04/06 06:04:35;;;;;;;14.52;8.30;;;12.20;99.90;;;;;;5100733;27;20170;-78
2024/04/06 06:07:00;;;;;;;14.43;8.40;;;12.20;99.90;;;;;;5099004;28;20047;-80
2024/04/06 06:09:26;;;;;;;13.93;8.63;;;12.20;99.90;;;;;;5122558;27;20844;-79
2024/04/06 06:11:52;;;;;;;12.75;7.85;;;12.30;99.90;;;;;;5102956;28;20069;-80
2024/04/06 06:14:18;;;;;;;13.23;8.00;;;12.30;99.90;;;;;;5108374;28;20465;-78
2024/04/06 06:16:43;;;;;;;12.50;8.20;;;12.30;99.90;;;;;;5104911;28;20094;-79
2024/04/06 06:19:09;;;;;;;9.80;7.15;;;12.40;99.90;;;;;;5117831;27;20066;-80
2024/04/06 06:21:34;;;;;;;15.77;7.22;;;12.40;99.90;;;;;;5138360;27;20040;-79
2024/04/06 06:24:00;;;;;;;9.50;6.72;;;12.50;99.90;;;;;;5103318;28;20077;-80
2024/04/06 06:26:25;;;;;;;11.10;6.72;;;12.50;99.90;;;;;;5113591;27;20047;-83
2024/04/06 06:28:51;;;;;;;11.10;6.90;;;12.60;99.90;;;;;;5104153;28;20040;-80
2024/04/06 06:31:16;;;;;;;11.77;6.78;;;12.50;99.90;;;;;;5098242;28;20044;-81
2024/04/06 06:33:42;;;;;;;10.55;6.40;;;12.60;99.90;;;;;;5101927;28;20114;-82
2024/04/06 06:36:08;;;;;;;7.63;5.35;;;12.70;99.90;;;;;;5103668;28;20042;-82
2024/04/06 06:38:34;;;;;;;8.57;5.97;;;12.60;99.90;;;;;;5126916;28;20046;-80
2024/04/06 06:40:59;;;;;;;8.48;5.50;;;12.70;99.90;;;;;;5096826;28;20143;-81
2024/04/06 06:43:25;;;;;;;12.20;6.40;;;12.70;99.90;;;;;;5120032;28;20032;-81
2024/04/06 06:45:51;;;;;;;16.33;9.38;;;12.70;99.90;;;;;;5113431;28;20043;-80
2024/04/06 06:48:16;;;;;;;11.82;5.68;;;12.80;99.90;;;;;;5100855;27;20856;-81
2024/04/06 06:50:42;;;;;;;12.02;5.68;;;12.80;99.90;;;;;;5094837;28;20051;-81
2024/04/06 06:53:07;;;;;;;7.85;4.65;;;12.90;99.90;;;;;;5095508;27;20044;-81
2024/04/06 06:55:33;;;;;;;10.35;4.90;;;13.00;99.90;;;;;;5108104;28;20530;-81
2024/04/06 06:57:59;;;;;;;11.00;4.15;;;13.10;99.90;;;;;;5091748;27;20100;-80
2024/04/06 07:00:24;;;;;;;8.13;4.38;;;13.20;99.90;;;;;;5097839;28;20043;-81
2024/04/06 07:02:50;;;;;;;8.57;3.70;;;13.30;99.90;;;;;;5112479;27;20084;-81
2024/04/06 07:05:15;;;;;;;6.93;3.30;;;13.40;99.90;;;;;;5105504;28;20047;-82
2024/04/06 07:07:41;;;;;;;7.75;3.83;;;13.50;99.90;;;;;;5099503;27;20043;-82
2024/04/06 07:10:07;;;;;;;7.13;3.35;;;13.60;99.90;;;;;;5089690;27;20052;-82
2024/04/06 07:12:32;;;;;;;7.05;3.20;;;13.70;99.90;;;;;;5092010;27;20043;-80
2024/04/06 07:14:58;;;;;;;6.25;2.70;;;13.70;99.90;;;;;;5090739;27;20052;-82
2024/04/06 07:17:24;;;;;;;6.60;3.10;;;13.90;99.90;;;;;;5099927;27;20412;-82
2024/04/06 07:19:50;;;;;;;7.78;3.55;;;13.80;99.90;;;;;;5096157;28;20558;-80
2024/04/06 07:22:15;;;;;;;9.27;3.58;;;13.90;99.90;;;;;;5095628;27;20047;-81
2024/04/06 07:24:43;;;;;;;7.20;2.95;;;13.90;99.90;;;;;;5095166;27;20035;-81
2024/04/06 07:27:09;;;;;;;6.57;3.28;;;14.00;99.90;;;;;;5094018;27;20052;-82
2024/04/06 07:29:35;;;;;;;8.05;3.70;;;14.10;99.90;;;;;;5098660;27;20062;-81
2024/04/06 07:32:01;;;;;;;8.55;2.63;;;14.10;99.90;;;;;;5090537;27;20510;-82
2024/04/06 07:34:26;;;;;;;6.55;2.42;;;14.20;99.90;;;;;;5091469;27;20109;-81
2024/04/06 07:36:52;;;;;;;5.50;2.30;;;14.30;99.90;;;;;;5091660;27;20073;-82
2024/04/06 07:39:17;;;;;;;5.28;2.40;;;14.30;99.90;;;;;;5097184;27;20447;-81
2024/04/06 07:41:43;;;;;;;7.07;2.53;;;14.40;99.90;;;;;;5100742;27;20039;-81
2024/04/06 07:44:09;;;;;;;5.90;2.50;;;14.50;99.90;;;;;;5094216;28;20039;-80
2024/04/06 07:46:34;;;;;;;5.32;2.17;;;14.60;99.90;;;;;;5115375;27;20102;-80
2024/04/06 07:49:00;;;;;;;5.47;2.67;;;14.70;99.90;;;;;;5102208;27;20166;-82
2024/04/06 07:51:26;;;;;;;6.07;2.40;;;14.70;99.90;;;;;;5098144;27;20584;-80
2024/04/06 07:53:52;;;;;;;5.57;2.50;;;14.70;99.90;;;;;;5121825;27;20092;-80
2024/04/06 07:56:17;;;;;;;5.20;2.05;;;14.70;99.90;;;;;;5119843;27;20418;-81
2024/04/06 07:58:43;;;;;;;7.03;2.30;;;14.80;99.90;;;;;;5096955;27;20059;-81
2024/04/06 08:01:08;;;;;;;5.65;2.38;;;14.70;99.90;;;;;;5103609;27;20064;-82
2024/04/06 08:03:34;;;;;;;4.45;1.98;;;14.80;99.90;;;;;;5097837;27;20043;-82
2024/04/06 08:06:01;;;;;;;4.40;1.60;;;14.80;99.90;;;;;;5116917;27;20409;-83
2024/04/06 08:08:27;;;;;;;4.68;1.77;;;14.90;99.90;;;;;;5100486;27;20135;-82
2024/04/06 08:10:53;;;;;;;7.28;2.25;;;14.90;99.90;;;;;;5117126;27;20047;-81
2024/04/06 08:13:19;;;;;;;4.93;1.80;;;15.00;99.90;;;;;;5095698;28;20047;-82
2024/04/06 08:15:47;;;;;;;6.13;1.63;;;15.10;99.90;;;;;;5100175;27;20480;-83
2024/04/06 08:18:13;;;;;;;4.32;1.70;;;15.20;99.90;;;;;;5081001;28;20489;-82
2024/04/06 08:20:39;;;;;;;5.35;1.60;;;15.30;99.90;;;;;;5096823;28;20101;-83
2024/04/06 08:23:04;;;;;;;6.55;1.83;;;15.40;99.90;;;;;;5094256;28;20043;-81
2024/04/06 08:25:30;;;;;;;8.00;1.83;;;15.50;99.90;;;;;;5082098;27;20049;-82
2024/04/06 08:27:55;;;;;;;5.70;1.67;;;15.70;99.90;;;;;;5119714;27;20115;-83
2024/04/06 08:30:22;;;;;;;5.97;2.03;;;15.80;99.90;;;;;;5118588;27;20048;-82
2024/04/06 08:32:55;;;;;;;6.78;1.98;;;15.80;99.90;;;;;;5099513;27;20044;-82
2024/04/06 08:35:21;;;;;;;6.93;1.60;;;15.90;99.90;;;;;;5101750;27;20035;-82
2024/04/06 08:37:46;;;;;;;4.00;1.40;;;16.00;99.90;;;;;;5098487;27;20047;-82
2024/04/06 08:40:14;;;;;;;4.72;1.73;;;16.20;99.90;;;;;;5103197;28;20175;-81
2024/04/06 08:42:41;;;;;;;3.80;1.50;;;16.20;99.90;;;;;;5101441;27;20780;-83
2024/04/06 08:45:11;;;;;;;4.43;1.33;;;16.40;99.90;;;;;;5094820;28;20055;-82
2024/04/06 08:47:37;;;;;;;4.57;1.17;;;16.50;99.90;;;;;;5104324;27;20625;-82
2024/04/06 08:50:08;;;;;;;4.40;1.17;;;16.70;99.90;;;;;;5100672;28;20047;-82
2024/04/06 08:52:36;;;;;;;3.95;1.17;;;17.00;99.90;;;;;;5097959;27;20083;-82
2024/04/06 08:55:03;;;;;;;5.03;1.50;;;17.10;99.90;;;;;;5111159;27;20574;-83
2024/04/06 08:57:30;;;;;;;2.95;1.10;;;17.20;99.90;;;;;;5120602;27;20047;-83
2024/04/06 08:59:58;;;;;;;4.07;1.30;;;17.20;99.90;;;;;;5105403;27;20050;-83
2024/04/06 09:02:23;;;;;;;2.78;1.10;;;17.30;99.90;;;;;;5092208;27;20139;-82
2024/04/06 09:04:49;;;;;;;4.22;1.60;;;17.40;99.90;;;;;;5103617;27;20047;-82
2024/04/06 09:07:15;;;;;;;4.47;1.15;;;17.50;99.90;;;;;;5099739;28;20051;-81
2024/04/06 09:09:41;;;;;;;5.72;1.50;;;17.60;99.90;;;;;;5105897;27;20043;-82
2024/04/06 09:12:07;;;;;;;4.15;1.20;;;17.70;99.90;;;;;;5095302;28;20406;-80
2024/04/06 09:14:38;;;;;;;5.47;1.35;;;17.70;99.90;;;;;;5104564;27;20136;-80
2024/04/06 09:17:04;;;;;;;5.20;1.30;;;17.80;99.90;;;;;;5103089;28;20055;-80
2024/04/06 09:19:29;;;;;;;4.25;1.65;;;17.90;99.90;;;;;;5118875;27;20055;-82
2024/04/06 09:21:56;;;;;;;3.55;1.45;;;17.90;99.90;;;;;;5099394;27;20054;-80
2024/04/06 09:24:26;;;;;;;4.97;1.20;;;17.90;99.90;;;;;;5100993;27;20083;-81
2024/04/06 09:27:02;;;;;;;5.95;1.83;;;17.90;99.90;;;;;;5099908;27;20054;-81
2024/04/06 09:29:28;;;;;;;3.90;1.40;;;17.90;99.90;;;;;;5094760;28;20055;-80
2024/04/06 09:31:56;;;;;;;6.80;1.33;;;17.90;99.90;;;;;;5093086;27;20055;-82
2024/04/06 09:34:22;;;;;;;4.25;1.40;;;17.90;99.90;;;;;;5096443;27;20460;-80
2024/04/06 09:36:56;;;;;;;5.82;1.40;;;18.00;99.90;;;;;;5099145;28;20055;-81
2024/04/06 09:39:22;;;;;;;4.60;1.42;;;18.10;99.90;;;;;;5099575;28;20067;-83
2024/04/06 09:41:49;;;;;;;4.78;1.35;;;18.20;99.90;;;;;;5105103;27;20456;-81
2024/04/06 09:44:15;;;;;;;6.20;1.35;;;18.50;99.90;;;;;;5091515;28;20786;-79
2024/04/06 09:46:44;;;;;;;4.72;1.17;;;18.70;99.90;;;;;;5097101;27;20130;-82
2024/04/06 09:49:12;;;;;;;3.28;1.10;;;18.90;99.90;;;;;;5093929;27;20035;-80
2024/04/06 09:51:37;;;;;;;5.40;1.75;;;19.10;99.90;;;;;;5102606;27;20500;-82
2024/04/06 09:54:03;;;;;;;5.43;1.40;;;19.30;99.90;;;;;;5119820;27;20043;-81
2024/04/06 09:56:30;;;;;;;4.28;1.20;;;19.40;99.90;;;;;;5094651;28;20747;-81
2024/04/06 09:58:57;;;;;;;3.20;0.98;;;19.50;99.90;;;;;;5100659;27;20047;-81
2024/04/06 10:01:22;;;;;;;6.13;1.63;;;19.70;99.90;;;;;;5070552;28;20052;-80
2024/04/06 10:03:49;;;;;;;5.45;1.45;;;19.70;99.90;;;;;;5099880;27;20073;-78
2024/04/06 10:06:16;;;;;;;5.30;1.30;;;19.80;99.90;;;;;;5097431;28;20040;-77
2024/04/06 10:09:00;;;;;;;2.95;1.23;;;20.00;99.90;;;;;;5112000;27;20109;-82
2024/04/06 10:11:29;;;;;;;3.95;1.23;;;20.10;99.90;;;;;;5095214;27;20465;-83
2024/04/06 10:13:58;;;;;;;7.03;1.30;;;20.30;99.90;;;;;;5100219;28;20051;-80
2024/04/06 10:16:28;;;;;;;3.17;0.90;;;20.40;99.90;;;;;;5093943;28;20687;-81
2024/04/06 10:19:00;;;;;;;5.47;2.08;;;20.50;99.90;;;;;;5079062;27;20056;-85
2024/04/06 10:21:38;;;;;;;2.28;1.15;;;20.70;99.90;;;;;;5094598;28;20047;-82
2024/04/06 10:24:13;;;;;;;3.50;1.42;;;20.80;99.90;;;;;;5110535;27;20047;-89
2024/04/06 10:26:46;;;;;;;3.45;1.02;;;20.70;99.90;;;;;;5099253;28;20039;-82
2024/04/06 10:29:15;;;;;;;4.57;1.20;;;20.90;99.90;;;;;;5112832;27;20141;-82
2024/04/06 10:31:41;;;;;;;4.25;0.98;;;21.10;99.90;;;;;;5116918;27;20862;-84
2024/04/06 10:34:08;;;;;;;4.80;1.30;;;21.20;99.90;;;;;;5118794;27;20055;-84
2024/04/06 10:36:33;;;;;;;2.70;0.98;;;21.30;99.90;;;;;;5096559;28;20059;-78
2024/04/06 10:39:00;;;;;;;7.68;1.00;;;21.50;99.90;;;;;;5115115;28;20050;-87
2024/04/06 10:41:26;;;;;;;3.80;1.20;;;21.50;99.90;;;;;;5121423;28;20082;-90
2024/04/06 10:43:51;;;;;;;3.42;1.20;;;21.60;99.90;;;;;;5090073;27;20176;-80
2024/04/06 10:46:18;;;;;;;5.78;1.30;;;21.70;99.90;;;;;;5112791;27;20047;-79
2024/04/06 10:48:44;;;;;;;6.97;1.20;;;21.80;99.90;;;;;;5113614;27;20055;-77
2024/04/06 10:51:12;;;;;;;4.97;1.40;;;21.90;99.90;;;;;;5112691;27;20048;-79
2024/04/06 10:53:37;;;;;;;4.10;1.10;;;21.90;99.90;;;;;;5122363;27;20136;-80
2024/04/06 10:56:04;;;;;;;9.30;1.38;;;22.00;99.90;;;;;;5119136;27;20494;-81
2024/04/06 10:58:30;;;;;;;4.32;1.17;;;22.10;99.90;;;;;;5119603;27;20437;-80
2024/04/06 11:00:56;;;;;;;4.05;1.08;;;22.20;99.90;;;;;;5104838;27;20138;-80
2024/04/06 11:03:22;;;;;;;3.15;1.20;;;22.10;99.90;;;;;;5106074;27;20472;-82
2024/04/06 11:05:48;;;;;;;5.70;1.40;;;22.20;99.90;;;;;;5122596;27;20056;-82
2024/04/06 11:08:13;;;;;;;3.85;1.20;;;22.20;99.90;;;;;;5106405;27;20046;-80
2024/04/06 11:10:39;;;;;;;5.93;1.20;;;22.20;99.90;;;;;;5097128;27;20043;-82
2024/04/06 11:13:05;;;;;;;3.85;0.90;;;22.20;99.90;;;;;;5106242;27;20061;-83
2024/04/06 11:15:30;;;;;;;4.00;1.17;;;22.30;99.90;;;;;;5108280;27;20053;-82
2024/04/06 11:17:57;;;;;;;4.95;1.15;;;22.20;99.90;;;;;;5126228;27;20176;-81
2024/04/06 11:20:24;;;;;;;3.78;1.20;;;22.10;99.90;;;;;;5104143;28;20047;-83
2024/04/06 11:22:50;;;;;;;4.72;1.40;;;22.10;99.90;;;;;;5096014;27;20051;-77
2024/04/06 11:25:22;;;;;;;5.15;1.02;;;22.10;99.90;;;;;;5110505;27;20514;-80
2024/04/06 11:27:51;;;;;;;3.50;1.05;;;22.00;99.90;;;;;;5118716;27;20043;-81
2024/04/06 11:30:18;;;;;;;6.70;1.27;;;22.10;99.90;;;;;;5102118;28;20356;-81
2024/04/06 11:32:48;;;;;;;2.92;1.00;;;22.10;99.90;;;;;;5095676;27;20043;-81
2024/04/06 11:35:14;;;;;;;2.42;1.00;;;22.10;99.90;;;;;;5100796;27;20525;-82
2024/04/06 11:37:39;;;;;;;4.75;1.20;;;22.20;99.90;;;;;;5097342;27;20058;-81
2024/04/06 11:40:05;;;;;;;3.58;1.20;;;22.20;99.90;;;;;;5100299;28;20039;-81
2024/04/06 11:42:31;;;;;;;4.80;1.23;;;22.20;99.90;;;;;;5100204;27;20039;-81
2024/04/06 11:44:56;;;;;;;4.00;1.17;;;22.30;99.90;;;;;;5095813;27;20546;-81
2024/04/06 11:47:22;;;;;;;4.35;1.40;;;22.30;99.90;;;;;;5116623;27;20043;-80
2024/04/06 11:49:48;;;;;;;4.55;1.30;;;22.40;99.90;;;;;;5116595;27;20043;-81
2024/04/06 11:52:14;;;;;;;4.03;1.17;;;22.40;99.90;;;;;;5097323;27;20039;-81
2024/04/06 11:54:42;;;;;;;3.40;1.15;;;22.40;99.90;;;;;;5092603;27;20125;-81
2024/04/06 11:57:08;;;;;;;7.03;1.35;;;22.40;99.90;;;;;;5096641;28;20071;-81
2024/04/06 11:59:33;;;;;;;4.22;1.40;;;22.40;99.90;;;;;;5110085;27;20047;-80
2024/04/06 12:01:59;;;;;;;4.05;1.10;;;22.40;99.90;;;;;;5097232;28;20046;-81
2024/04/06 12:04:25;;;;;;;4.72;1.40;;;22.50;99.90;;;;;;5097849;28;20052;-81
2024/04/06 12:06:52;;;;;;;3.53;1.30;;;22.50;99.90;;;;;;5093522;27;20079;-81
2024/04/06 12:09:18;;;;;;;6.25;1.30;;;22.60;99.90;;;;;;5093196;27;20047;-82
2024/04/06 12:11:43;;;;;;;4.35;1.20;;;22.70;99.90;;;;;;5118107;27;20484;-81
2024/04/06 12:14:09;;;;;;;5.45;1.52;;;22.80;99.90;;;;;;5097905;27;20357;-81
2024/04/06 12:16:35;;;;;;;6.15;1.50;;;22.90;99.90;;;;;;5092516;27;20040;-81
2024/04/06 12:19:00;;;;;;;3.15;1.20;;;23.00;99.90;;;;;;5097096;27;20681;-81
2024/04/06 12:21:26;;;;;;;7.40;1.63;;;23.10;99.90;;;;;;5116439;27;20058;-81
2024/04/06 12:23:53;;;;;;;4.78;1.30;;;23.20;99.90;;;;;;5078983;27;20039;-81
2024/04/06 12:26:19;;;;;;;4.65;1.45;;;23.30;99.90;;;;;;5115287;27;20733;-81
2024/04/06 12:28:45;;;;;;;3.63;1.40;;;23.30;99.90;;;;;;5087133;27;20148;-81
2024/04/06 12:31:12;;;;;;;8.88;1.30;;;23.30;99.90;;;;;;5098783;28;20552;-82
2024/04/06 12:33:37;;;;;;;5.35;1.50;;;23.40;99.90;;;;;;5095005;27;20067;-82
2024/04/06 12:36:04;;;;;;;3.45;1.02;;;23.30;99.90;;;;;;5097126;28;20114;-81
2024/04/06 12:38:31;;;;;;;4.55;1.33;;;23.30;99.90;;;;;;5099827;27;20206;-82